Time;durP1;ratioP1;P1;durP2;ratioP2;P2;SDS_P1;SDS_P2;PMS_P1;PMS_P2;Temp;Humidity;BMP_temperature;BMP_pressure;BME280_temperature;BME280_humidity;BME280_pressure;Samples;Min_cycle;Max_cycle;Signal;HPM_P1;HPM_P2
2021/06/02 00:02:10;;;;;;;1.75;0.73;;;16.80;41.20;;;;;;5061802;28;20032;-68
2021/06/02 00:04:43;;;;;;;1.58;0.73;;;16.80;41.50;;;;;;5048195;28;20036;-68
2021/06/02 00:07:11;;;;;;;1.20;0.98;;;16.80;41.40;;;;;;5046650;28;20103;-68
2021/06/02 00:09:38;;;;;;;0.77;0.57;;;16.80;41.40;;;;;;5042788;28;20028;-68
2021/06/02 00:12:07;;;;;;;2.55;0.60;;;16.70;41.70;;;;;;5048942;28;20025;-68
2021/06/02 00:14:33;;;;;;;1.38;0.93;;;16.70;42.10;;;;;;5047768;28;20032;-68
2021/06/02 00:16:59;;;;;;;2.58;0.80;;;16.70;42.10;;;;;;5048256;28;20025;-68
2021/06/02 00:19:25;;;;;;;1.20;0.80;;;16.60;42.50;;;;;;5045922;28;20039;-67
2021/06/02 00:21:52;;;;;;;1.73;0.98;;;16.60;43.00;;;;;;5048209;28;20046;-68
2021/06/02 00:24:17;;;;;;;1.60;0.70;;;16.50;43.60;;;;;;5047548;28;20053;-68
2021/06/02 00:26:44;;;;;;;1.27;0.88;;;16.50;43.90;;;;;;5047190;28;20057;-68
2021/06/02 00:29:12;;;;;;;1.25;0.80;;;16.40;44.20;;;;;;5046239;28;20025;-68
2021/06/02 00:31:39;;;;;;;1.27;1.15;;;16.40;44.70;;;;;;5047860;28;20039;-68
2021/06/02 00:34:06;;;;;;;1.77;1.13;;;16.20;45.20;;;;;;5047923;28;20025;-67
2021/06/02 00:36:32;;;;;;;1.05;0.75;;;16.20;45.50;;;;;;5046075;28;20052;-68
2021/06/02 00:38:59;;;;;;;2.55;0.90;;;16.20;45.60;;;;;;5045816;28;20053;-68
2021/06/02 00:41:24;;;;;;;15.05;1.00;;;16.10;46.10;;;;;;5049946;28;20096;-68
2021/06/02 00:43:50;;;;;;;2.22;1.05;;;16.10;46.40;;;;;;5052286;28;20108;-68
2021/06/02 00:46:18;;;;;;;6.30;1.02;;;16.00;46.90;;;;;;5050112;28;20021;-68
2021/06/02 00:48:45;;;;;;;1.30;0.88;;;16.00;47.00;;;;;;5048797;28;20116;-68
2021/06/02 00:51:11;;;;;;;1.17;0.80;;;15.90;47.60;;;;;;5050902;28;20618;-68
2021/06/02 00:53:37;;;;;;;4.85;1.48;;;15.90;47.70;;;;;;5050171;28;20017;-68
2021/06/02 00:56:06;;;;;;;2.35;1.25;;;15.80;47.70;;;;;;5050533;28;20074;-68
2021/06/02 00:58:41;;;;;;;2.35;1.15;;;15.80;48.20;;;;;;5049678;28;20017;-68
2021/06/02 01:01:09;;;;;;;1.77;1.38;;;15.80;48.80;;;;;;5051493;28;20044;-68
2021/06/02 01:03:35;;;;;;;1.23;1.13;;;15.80;49.10;;;;;;5050823;28;20036;-68
2021/06/02 01:06:02;;;;;;;2.05;1.38;;;15.80;49.80;;;;;;5048192;28;20629;-68
2021/06/02 01:08:31;;;;;;;2.58;1.25;;;15.70;50.20;;;;;;5047604;28;20384;-68
2021/06/02 01:10:57;;;;;;;4.38;1.40;;;15.70;50.50;;;;;;5051493;28;20029;-68
2021/06/02 01:13:23;;;;;;;3.00;0.98;;;15.60;50.90;;;;;;5047465;28;20036;-68
2021/06/02 01:15:51;;;;;;;1.90;1.35;;;15.60;51.50;;;;;;5049537;28;20025;-68
2021/06/02 01:18:20;;;;;;;1.15;1.05;;;15.60;51.80;;;;;;5046655;28;20033;-68
2021/06/02 01:20:47;;;;;;;2.83;1.10;;;15.60;51.50;;;;;;5050227;28;20061;-68
2021/06/02 01:23:14;;;;;;;4.20;1.42;;;15.60;52.30;;;;;;5066467;28;20037;-68
2021/06/02 01:25:41;;;;;;;3.35;1.08;;;15.60;52.10;;;;;;5050582;28;20021;-67
2021/06/02 01:28:07;;;;;;;2.38;1.55;;;15.60;52.90;;;;;;5047766;28;20028;-68
2021/06/02 01:30:33;;;;;;;2.78;1.67;;;15.60;52.60;;;;;;5049476;28;20082;-68
2021/06/02 01:33:23;;;;;;;4.93;1.50;;;15.60;52.60;;;;;;5050782;28;20475;-68
2021/06/02 01:36:03;;;;;;;3.17;1.17;;;15.60;52.50;;;;;;5046395;28;20029;-68
2021/06/02 01:39:01;;;;;;;4.05;1.30;;;15.60;52.40;;;;;;5046332;28;20447;-68
2021/06/02 01:41:45;;;;;;;3.15;1.27;;;15.60;53.00;;;;;;5048719;28;20476;-68
2021/06/02 01:44:47;;;;;;;2.88;1.08;;;15.60;53.40;;;;;;5049594;28;20388;-68
2021/06/02 01:47:43;;;;;;;4.90;1.98;;;15.60;54.40;;;;;;5048787;28;20033;-68
2021/06/02 01:50:37;;;;;;;2.67;1.45;;;15.60;54.10;;;;;;5049590;28;20029;-68
2021/06/02 01:53:22;;;;;;;1.90;1.20;;;15.50;54.00;;;;;;5049594;28;20017;-68
2021/06/02 01:56:09;;;;;;;5.10;1.85;;;15.50;54.90;;;;;;5050249;28;20029;-67
2021/06/02 01:58:38;;;;;;;2.97;1.55;;;15.50;55.40;;;;;;5050766;28;20025;-68
2021/06/02 02:01:18;;;;;;;3.30;2.42;;;15.50;55.80;;;;;;5047234;28;20029;-67
2021/06/02 02:03:59;;;;;;;14.50;6.95;;;15.40;55.60;;;;;;5050785;28;20025;-68
2021/06/02 02:06:33;;;;;;;2.85;2.38;;;15.40;55.60;;;;;;5048407;28;20108;-68
2021/06/02 02:09:08;;;;;;;5.07;1.38;;;15.30;57.30;;;;;;5049142;28;20032;-68
2021/06/02 02:11:41;;;;;;;5.50;2.25;;;15.30;57.70;;;;;;5048024;28;20033;-68
2021/06/02 02:14:40;;;;;;;5.50;1.88;;;15.20;58.10;;;;;;5050813;28;20354;-68
2021/06/02 02:17:24;;;;;;;7.22;3.25;;;15.20;59.60;;;;;;5050148;28;20028;-68
2021/06/02 02:20:16;;;;;;;15.57;9.52;;;15.10;58.90;;;;;;5049954;28;20048;-68
2021/06/02 02:23:00;;;;;;;6.22;2.65;;;15.10;58.00;;;;;;5049453;28;20032;-68
2021/06/02 02:25:49;;;;;;;8.02;3.70;;;15.20;59.10;;;;;;5050369;28;20025;-68
2021/06/02 02:28:46;;;;;;;5.68;2.80;;;15.20;58.90;;;;;;5044149;28;20037;-68
2021/06/02 02:31:23;;;;;;;7.50;1.80;;;15.20;60.60;;;;;;5049914;28;20025;-69
2021/06/02 02:33:58;;;;;;;5.78;3.10;;;15.20;61.90;;;;;;5048335;28;20029;-69
2021/06/02 02:36:34;;;;;;;6.80;2.70;;;15.10;62.50;;;;;;5050780;28;20021;-68
2021/06/02 02:39:16;;;;;;;3.25;2.22;;;15.00;62.50;;;;;;5048247;28;20022;-68
2021/06/02 02:42:19;;;;;;;4.20;1.80;;;15.00;63.10;;;;;;5047971;28;20124;-68
2021/06/02 02:45:02;;;;;;;11.25;3.08;;;15.00;64.00;;;;;;5044889;28;20116;-69
2021/06/02 02:47:44;;;;;;;3.92;1.63;;;15.00;64.10;;;;;;5048872;28;20032;-68
2021/06/02 02:50:46;;;;;;;3.45;2.00;;;14.90;65.50;;;;;;5048646;28;20031;-70
2021/06/02 02:53:23;;;;;;;3.97;2.10;;;14.90;66.20;;;;;;5049824;28;20052;-70
2021/06/02 02:55:59;;;;;;;8.10;2.50;;;14.80;66.60;;;;;;5048889;28;20017;-69
2021/06/02 02:59:03;;;;;;;5.70;2.58;;;14.80;67.10;;;;;;5048960;28;20040;-69
2021/06/02 03:01:52;;;;;;;5.82;2.28;;;14.80;67.40;;;;;;5043447;28;20120;-69
2021/06/02 03:04:26;;;;;;;8.25;2.45;;;14.70;68.20;;;;;;5047243;28;20061;-69
2021/06/02 03:07:00;;;;;;;3.10;2.05;;;14.70;68.80;;;;;;5047177;28;20033;-69
2021/06/02 03:10:09;;;;;;;4.22;2.50;;;14.60;68.60;;;;;;5048339;28;20064;-71
2021/06/02 03:12:47;;;;;;;8.90;2.70;;;14.70;69.70;;;;;;5039194;28;20043;-71
2021/06/02 03:15:33;;;;;;;3.03;2.08;;;14.70;69.40;;;;;;5050175;28;20040;-71
2021/06/02 03:18:06;;;;;;;4.65;2.65;;;14.70;69.60;;;;;;5046034;28;20067;-71
2021/06/02 03:20:54;;;;;;;3.70;2.05;;;14.80;69.30;;;;;;5045761;28;20093;-70
2021/06/02 03:23:57;;;;;;;4.22;2.35;;;14.80;69.10;;;;;;5049238;28;20036;-71
2021/06/02 03:26:28;;;;;;;4.38;2.80;;;14.80;69.50;;;;;;5047386;28;20025;-71
2021/06/02 03:29:02;;;;;;;3.53;2.20;;;14.80;70.10;;;;;;5047996;28;20035;-70
2021/06/02 03:31:46;;;;;;;2.75;2.55;;;14.80;69.50;;;;;;5047116;28;20025;-70
2021/06/02 03:34:27;;;;;;;5.05;2.00;;;14.80;69.60;;;;;;5046812;28;20387;-71
2021/06/02 03:37:20;;;;;;;8.02;2.53;;;14.80;70.20;;;;;;5045886;28;20032;-70
2021/06/02 03:39:48;;;;;;;4.90;3.03;;;14.80;71.20;;;;;;5046209;28;20028;-70
2021/06/02 03:42:24;;;;;;;5.47;2.63;;;14.70;71.20;;;;;;5047470;28;20028;-70
2021/06/02 03:45:30;;;;;;;4.80;2.70;;;14.70;71.30;;;;;;5046526;28;20082;-70
2021/06/02 03:48:26;;;;;;;5.25;2.00;;;14.70;71.90;;;;;;5047428;28;20041;-70
2021/06/02 03:51:01;;;;;;;5.18;2.35;;;14.70;71.70;;;;;;5044757;28;20043;-70
2021/06/02 03:54:02;;;;;;;3.38;2.40;;;14.80;72.90;;;;;;5046990;28;20515;-70
2021/06/02 03:56:54;;;;;;;2.88;2.45;;;14.70;73.40;;;;;;5028072;28;20069;-70
2021/06/02 03:59:58;;;;;;;5.20;2.30;;;14.70;73.90;;;;;;5047539;28;20024;-70
2021/06/02 04:02:39;;;;;;;4.43;2.47;;;14.60;74.30;;;;;;5041307;28;20037;-72
2021/06/02 04:05:14;;;;;;;4.40;2.15;;;14.60;74.00;;;;;;5046428;28;20037;-73
2021/06/02 04:08:19;;;;;;;4.80;2.75;;;14.70;74.00;;;;;;5045128;28;20017;-73
2021/06/02 04:11:06;;;;;;;5.75;2.47;;;14.80;73.80;;;;;;4983744;28;20549;-73
2021/06/02 04:13:41;;;;;;;4.15;2.65;;;14.80;74.50;;;;;;5041590;28;20152;-72
2021/06/02 04:16:15;;;;;;;3.65;2.72;;;14.80;74.10;;;;;;5047678;28;20021;-72
2021/06/02 04:18:46;;;;;;;5.40;3.03;;;14.80;74.80;;;;;;5044527;28;20286;-71
2021/06/02 04:21:15;;;;;;;5.07;3.28;;;14.80;74.30;;;;;;5047267;28;20479;-72
2021/06/02 04:23:43;;;;;;;9.32;2.53;;;14.80;75.10;;;;;;5043684;28;20579;-69
2021/06/02 04:26:10;;;;;;;3.63;2.00;;;14.70;75.00;;;;;;5046943;28;20241;-68
2021/06/02 04:28:37;;;;;;;3.03;2.22;;;14.80;74.50;;;;;;5047808;28;20021;-70
2021/06/02 04:31:08;;;;;;;8.13;2.42;;;15.10;74.40;;;;;;5044617;28;20025;-70
2021/06/02 04:33:35;;;;;;;5.10;2.15;;;15.10;73.70;;;;;;5039179;28;20054;-68
2021/06/02 04:36:03;;;;;;;4.05;1.90;;;15.10;73.50;;;;;;5043643;28;20028;-67
2021/06/02 04:38:30;;;;;;;3.97;1.83;;;15.00;74.00;;;;;;5042591;28;20713;-67
2021/06/02 04:40:58;;;;;;;3.85;1.65;;;14.80;74.00;;;;;;5045333;28;20037;-67
2021/06/02 04:43:25;;;;;;;7.63;1.92;;;14.80;73.80;;;;;;5041256;28;20043;-67
2021/06/02 04:45:56;;;;;;;4.50;1.58;;;14.70;74.20;;;;;;5045675;28;20025;-67
2021/06/02 04:48:21;;;;;;;2.63;1.85;;;14.70;74.40;;;;;;5044113;28;20067;-67
2021/06/02 04:50:59;;;;;;;;;;;14.60;74.00;;;;;;5043539;28;20037;-67
2021/06/02 04:53:59;;;;;;;3.63;1.98;;;14.70;74.00;;;;;;5042925;28;19917;-67
2021/06/02 04:56:28;;;;;;;4.28;2.90;;;14.70;73.60;;;;;;5045467;28;20492;-68
2021/06/02 04:59:49;;;;;;;5.25;2.65;;;14.80;74.00;;;;;;5045212;28;20032;-68
2021/06/02 05:02:51;;;;;;;13.52;4.10;;;14.80;73.30;;;;;;5041483;28;20033;-68
2021/06/02 05:05:27;;;;;;;5.88;1.80;;;14.90;73.10;;;;;;5044148;28;20029;-69
2021/06/02 05:08:30;;;;;;;6.22;2.13;;;15.00;72.50;;;;;;5048693;28;20036;-69
2021/06/02 05:11:27;;;;;;;5.40;1.60;;;15.00;72.00;;;;;;5045488;28;20034;-69
2021/06/02 05:14:45;;;;;;;3.53;2.13;;;15.00;71.90;;;;;;5045736;28;20029;-72
2021/06/02 05:17:29;;;;;;;2.22;1.35;;;15.10;71.70;;;;;;5046861;28;20027;-71
2021/06/02 05:20:18;;;;;;;4.82;1.77;;;15.10;71.50;;;;;;5042424;28;20125;-73
2021/06/02 05:23:05;;;;;;;2.40;1.00;;;15.10;71.00;;;;;;5048436;28;20048;-71
2021/06/02 05:25:42;;;;;;;2.63;1.10;;;15.10;70.90;;;;;;5048558;28;20103;-72
2021/06/02 05:28:37;;;;;;;3.70;1.48;;;15.20;70.70;;;;;;5049745;28;20029;-71
2021/06/02 05:31:40;;;;;;;3.17;1.13;;;15.30;70.40;;;;;;5050591;28;20036;-72
2021/06/02 05:34:55;;;;;;;4.82;1.38;;;15.80;69.60;;;;;;5052109;28;20035;-71
2021/06/02 05:37:53;;;;;;;4.15;1.35;;;16.50;67.10;;;;;;5051790;28;20021;-71
2021/06/02 05:40:57;;;;;;;2.83;1.67;;;17.00;65.70;;;;;;5050548;28;20453;-72
2021/06/02 05:43:37;;;;;;;6.35;1.70;;;17.00;64.30;;;;;;5052388;28;20082;-75
2021/06/02 05:46:21;;;;;;;3.42;1.17;;;17.00;63.70;;;;;;5050890;28;20048;-75
2021/06/02 05:49:24;;;;;;;2.88;1.27;;;17.00;64.00;;;;;;5050591;28;20036;-74
2021/06/02 05:51:56;;;;;;;7.85;1.67;;;16.70;64.50;;;;;;5049693;28;20025;-75
2021/06/02 05:54:56;;;;;;;8.40;1.17;;;16.60;65.00;;;;;;5051728;28;20104;-75
2021/06/02 05:57:41;;;;;;;5.93;1.10;;;16.70;65.00;;;;;;5049905;28;20033;-75
2021/06/02 06:00:21;;;;;;;3.20;1.42;;;16.60;65.10;;;;;;5050391;28;20029;-74
2021/06/02 06:03:29;;;;;;;1.15;1.02;;;16.60;65.00;;;;;;5048368;28;20021;-74
2021/06/02 06:06:29;;;;;;;5.13;1.58;;;16.50;65.30;;;;;;5048634;28;20021;-75
2021/06/02 06:09:16;;;;;;;3.00;1.30;;;16.40;65.50;;;;;;5046973;28;20432;-73
2021/06/02 06:12:06;;;;;;;4.07;1.38;;;16.30;65.80;;;;;;5049486;28;20219;-73
2021/06/02 06:15:09;;;;;;;2.53;0.90;;;16.30;65.90;;;;;;5049703;28;20097;-73
2021/06/02 06:17:53;;;;;;;4.57;1.85;;;16.20;66.00;;;;;;5049230;28;20033;-73
2021/06/02 06:21:07;;;;;;;3.20;1.80;;;16.40;66.10;;;;;;5049044;28;20024;-73
2021/06/02 06:23:51;;;;;;;5.20;1.70;;;16.60;65.80;;;;;;5004497;28;20123;-73
2021/06/02 06:26:36;;;;;;;5.03;2.05;;;16.80;65.40;;;;;;5050844;28;20063;-73
2021/06/02 06:29:11;;;;;;;4.20;1.33;;;16.90;65.00;;;;;;5049864;28;20369;-73
2021/06/02 06:31:40;;;;;;;2.20;0.90;;;16.90;64.70;;;;;;5045234;28;20071;-77
2021/06/02 06:34:11;;;;;;;2.05;1.27;;;16.90;64.80;;;;;;5044821;28;20519;-77
2021/06/02 06:36:38;;;;;;;4.00;2.13;;;16.90;64.50;;;;;;5044647;28;20013;-77
2021/06/02 06:39:25;;;;;;;26.85;13.63;;;16.90;65.40;;;;;;5048470;28;20025;-73
2021/06/02 06:41:52;;;;;;;7.32;1.90;;;17.10;64.90;;;;;;5049053;28;20025;-76
2021/06/02 06:44:20;;;;;;;5.43;2.88;;;17.40;64.40;;;;;;5049603;28;20549;-77
2021/06/02 06:46:47;;;;;;;5.18;1.70;;;17.60;63.50;;;;;;5046388;28;20091;-76
2021/06/02 06:49:15;;;;;;;4.35;1.30;;;17.60;63.70;;;;;;5047887;28;20028;-77
2021/06/02 06:51:42;;;;;;;4.03;1.98;;;17.50;63.70;;;;;;5047379;28;20024;-75
2021/06/02 06:54:12;;;;;;;4.25;2.25;;;17.60;64.00;;;;;;5048119;28;20432;-77
2021/06/02 06:56:39;;;;;;;4.00;2.30;;;17.90;63.10;;;;;;5047317;28;20028;-76
2021/06/02 06:59:05;;;;;;;4.75;1.63;;;18.00;63.10;;;;;;5049511;28;20019;-76
2021/06/02 07:01:33;;;;;;;6.45;1.92;;;18.10;63.00;;;;;;5047586;28;21084;-76
2021/06/02 07:04:00;;;;;;;4.88;2.28;;;18.10;62.90;;;;;;5046726;28;20021;-77
2021/06/02 07:06:26;;;;;;;2.88;1.95;;;18.30;62.70;;;;;;5049205;28;20393;-76
2021/06/02 07:08:51;;;;;;;4.20;2.25;;;18.40;62.50;;;;;;5044825;28;20290;-76
2021/06/02 07:11:18;;;;;;;2.95;2.10;;;18.60;62.60;;;;;;5046917;28;20387;-75
2021/06/02 07:13:46;;;;;;;8.40;4.20;;;18.80;62.20;;;;;;5047775;28;20025;-76
2021/06/02 07:16:13;;;;;;;3.78;3.03;;;19.00;61.60;;;;;;5045591;28;20455;-77
2021/06/02 07:18:41;;;;;;;23.35;12.98;;;19.00;61.60;;;;;;5047113;28;20013;-78
2021/06/02 07:21:08;;;;;;;3.53;2.60;;;18.90;62.20;;;;;;5048167;28;20041;-76
2021/06/02 07:23:37;;;;;;;8.85;3.78;;;18.90;62.00;;;;;;5048007;28;20535;-75
2021/06/02 07:26:02;;;;;;;7.15;3.22;;;18.90;62.30;;;;;;5046008;28;20043;-74
2021/06/02 07:28:41;;;;;;;9.32;3.30;;;18.80;62.70;;;;;;5046514;28;20396;-74
2021/06/02 07:31:07;;;;;;;7.47;3.28;;;18.80;63.30;;;;;;5045966;28;20480;-75
2021/06/02 07:33:34;;;;;;;8.82;5.40;;;18.70;63.70;;;;;;5049011;28;20377;-75
2021/06/02 07:36:01;;;;;;;4.85;2.63;;;18.60;64.30;;;;;;5047126;28;20021;-75
2021/06/02 07:38:26;;;;;;;3.53;2.40;;;18.60;64.30;;;;;;5048041;28;20060;-76
2021/06/02 07:40:52;;;;;;;3.55;2.70;;;18.60;63.60;;;;;;5047647;28;20134;-75
2021/06/02 07:43:18;;;;;;;5.75;3.25;;;18.30;63.70;;;;;;5044495;28;20032;-74
2021/06/02 07:45:44;;;;;;;5.97;3.33;;;18.30;64.40;;;;;;5046681;28;20032;-77
2021/06/02 07:48:10;;;;;;;12.13;4.13;;;18.40;65.10;;;;;;5046475;28;20171;-75
2021/06/02 07:50:36;;;;;;;5.72;4.05;;;18.60;65.10;;;;;;5042639;28;20042;-76
2021/06/02 07:53:02;;;;;;;5.78;3.58;;;18.80;65.00;;;;;;5045910;28;20134;-77
2021/06/02 07:55:27;;;;;;;5.40;3.17;;;18.90;64.70;;;;;;5047553;28;20028;-75
2021/06/02 07:57:53;;;;;;;3.78;3.03;;;19.20;64.10;;;;;;5046880;28;20029;-75
2021/06/02 08:00:20;;;;;;;10.07;3.22;;;19.30;63.30;;;;;;5044393;28;20044;-77
2021/06/02 08:02:45;;;;;;;3.53;2.60;;;19.40;62.90;;;;;;5043118;28;20484;-79
2021/06/02 08:05:13;;;;;;;9.88;3.47;;;19.30;63.20;;;;;;5042070;28;20029;-77
2021/06/02 08:07:39;;;;;;;3.00;2.17;;;19.40;63.00;;;;;;5044594;28;20606;-77
2021/06/02 08:10:05;;;;;;;6.20;3.15;;;19.50;63.00;;;;;;5044352;28;20037;-78
2021/06/02 08:12:31;;;;;;;3.60;1.95;;;19.60;62.90;;;;;;5048327;28;20334;-78
2021/06/02 08:14:56;;;;;;;6.72;3.05;;;19.60;62.70;;;;;;5044769;28;20349;-75
2021/06/02 08:17:22;;;;;;;9.80;3.10;;;19.50;63.20;;;;;;5046084;28;20033;-79
2021/06/02 08:19:47;;;;;;;10.15;3.40;;;19.70;63.40;;;;;;5041614;28;20437;-77
2021/06/02 08:22:13;;;;;;;7.88;2.75;;;19.90;63.20;;;;;;5046431;28;20091;-76
2021/06/02 08:24:39;;;;;;;4.53;2.17;;;20.20;62.80;;;;;;5047723;28;20477;-77
2021/06/02 08:27:09;;;;;;;3.63;2.10;;;20.40;61.30;;;;;;5046787;28;20025;-76
2021/06/02 08:29:34;;;;;;;7.53;2.47;;;20.30;61.40;;;;;;5046809;28;20029;-77
2021/06/02 08:32:00;;;;;;;5.13;2.78;;;20.20;61.70;;;;;;5045451;28;20098;-76
2021/06/02 08:34:26;;;;;;;2.28;1.77;;;19.90;62.10;;;;;;5047579;28;20075;-76
2021/06/02 08:36:52;;;;;;;6.22;3.33;;;19.80;63.10;;;;;;5045424;28;20029;-75
2021/06/02 08:39:18;;;;;;;7.18;2.80;;;19.70;62.80;;;;;;5044227;28;20023;-76
2021/06/02 08:41:43;;;;;;;3.72;2.13;;;19.80;63.10;;;;;;5044553;28;20539;-76
2021/06/02 08:44:09;;;;;;;6.65;2.65;;;19.90;62.50;;;;;;5043853;28;20082;-76
2021/06/02 08:46:36;;;;;;;7.85;3.03;;;20.10;62.60;;;;;;5046311;28;20032;-76
2021/06/02 08:49:03;;;;;;;5.10;3.10;;;20.20;62.50;;;;;;5043608;28;20439;-78
2021/06/02 08:51:29;;;;;;;4.40;2.70;;;20.20;62.60;;;;;;5043185;28;20060;-79
2021/06/02 08:53:56;;;;;;;6.35;2.20;;;20.60;62.50;;;;;;5046414;28;20029;-78
2021/06/02 08:56:22;;;;;;;3.70;2.90;;;20.70;61.50;;;;;;5046677;28;20392;-77
2021/06/02 08:58:48;;;;;;;7.78;2.83;;;20.70;61.40;;;;;;5042544;28;20028;-78
2021/06/02 09:01:14;;;;;;;4.05;2.90;;;20.60;61.70;;;;;;5047877;28;20033;-76
2021/06/02 09:03:40;;;;;;;6.03;2.70;;;20.60;62.00;;;;;;5048253;28;20400;-77
2021/06/02 09:06:07;;;;;;;6.88;3.08;;;20.60;62.20;;;;;;5066085;28;20059;-77
2021/06/02 09:08:33;;;;;;;4.55;2.80;;;20.80;62.10;;;;;;5047446;28;20032;-78
2021/06/02 09:11:17;;;;;;;5.75;3.22;;;21.10;61.60;;;;;;5045749;28;20094;-78
2021/06/02 09:13:44;;;;;;;6.93;3.92;;;21.10;61.10;;;;;;5047797;28;20029;-80
2021/06/02 09:16:23;;;;;;;5.63;2.78;;;21.20;61.70;;;;;;5049567;28;20934;-76
2021/06/02 09:19:07;;;;;;;5.30;2.75;;;21.50;60.90;;;;;;5050372;28;20112;-78
2021/06/02 09:21:37;;;;;;;6.13;4.30;;;21.60;60.60;;;;;;5050739;28;20021;-79
2021/06/02 09:24:04;;;;;;;8.40;5.65;;;21.60;60.80;;;;;;5049111;28;20224;-77
2021/06/02 09:26:30;;;;;;;8.75;4.53;;;21.70;60.50;;;;;;5049953;28;20520;-77
2021/06/02 09:29:09;;;;;;;6.20;2.65;;;21.90;59.50;;;;;;5047478;28;20080;-78
2021/06/02 09:31:38;;;;;;;13.02;2.45;;;21.70;60.20;;;;;;5048583;28;20404;-77
2021/06/02 09:34:22;;;;;;;7.25;3.67;;;21.50;61.20;;;;;;5049547;28;20032;-77
2021/06/02 09:37:06;;;;;;;5.80;4.38;;;21.50;61.30;;;;;;5048151;28;20092;-77
2021/06/02 09:39:42;;;;;;;10.13;5.03;;;21.60;61.30;;;;;;5049276;28;20024;-76
2021/06/02 09:42:23;;;;;;;13.20;8.07;;;21.60;61.60;;;;;;5049676;28;20158;-77
2021/06/02 09:45:14;;;;;;;6.13;3.67;;;21.50;61.20;;;;;;5049914;28;20017;-77
2021/06/02 09:47:43;;;;;;;6.38;5.18;;;21.10;62.10;;;;;;5048773;28;20029;-78
2021/06/02 09:50:10;;;;;;;12.65;7.20;;;21.20;62.50;;;;;;5058441;28;20028;-80
2021/06/02 09:52:50;;;;;;;5.32;2.67;;;21.20;62.20;;;;;;5048648;28;20594;-79
2021/06/02 09:55:33;;;;;;;5.07;2.78;;;21.10;62.20;;;;;;5050933;28;20029;-79
2021/06/02 09:58:01;;;;;;;4.30;2.97;;;21.10;63.00;;;;;;5048580;28;20037;-83
2021/06/02 10:00:28;;;;;;;4.95;3.63;;;21.20;62.50;;;;;;5049390;28;20024;-78
2021/06/02 10:02:59;;;;;;;5.05;2.38;;;21.20;62.20;;;;;;5045581;28;20032;-76
2021/06/02 10:05:37;;;;;;;3.90;2.78;;;21.10;62.70;;;;;;5046391;28;20044;-79
2021/06/02 10:08:03;;;;;;;15.60;6.25;;;21.30;62.60;;;;;;5045148;28;20104;-79
2021/06/02 10:10:31;;;;;;;9.07;5.47;;;21.40;62.20;;;;;;5044174;28;20025;-78
2021/06/02 10:12:58;;;;;;;3.33;2.85;;;21.50;62.10;;;;;;5048570;28;20055;-79
2021/06/02 10:15:32;;;;;;;4.95;2.45;;;21.70;61.20;;;;;;5049337;28;20530;-76
2021/06/02 10:17:59;;;;;;;4.50;2.00;;;21.70;61.90;;;;;;5047620;28;20025;-79
2021/06/02 10:20:25;;;;;;;5.75;3.03;;;21.90;61.50;;;;;;5046851;28;20660;-73
2021/06/02 10:22:59;;;;;;;5.55;3.35;;;21.90;61.50;;;;;;5046786;28;20040;-74
2021/06/02 10:25:27;;;;;;;6.35;4.72;;;22.00;61.80;;;;;;5050336;28;20067;-74
2021/06/02 10:27:55;;;;;;;9.35;7.18;;;22.20;61.60;;;;;;5042439;28;20541;-74
2021/06/02 10:30:25;;;;;;;9.88;6.88;;;22.40;60.40;;;;;;5038254;28;20488;-71
2021/06/02 10:32:54;;;;;;;5.65;4.10;;;22.60;59.30;;;;;;5045225;28;20033;-71
2021/06/02 10:35:20;;;;;;;12.20;8.90;;;22.70;57.80;;;;;;5048936;28;20024;-71
2021/06/02 10:37:45;;;;;;;19.00;11.70;;;22.70;58.80;;;;;;5047929;28;20029;-70
2021/06/02 10:40:30;;;;;;;11.18;5.93;;;22.70;59.60;;;;;;5046868;28;20079;-69
2021/06/02 10:43:16;;;;;;;5.20;2.47;;;22.70;59.90;;;;;;5045419;28;20062;-71
2021/06/02 10:45:53;;;;;;;7.25;2.63;;;22.80;59.50;;;;;;5062982;28;20037;-71
2021/06/02 10:48:36;;;;;;;6.35;2.90;;;23.00;59.30;;;;;;5049344;28;20035;-71
2021/06/02 10:51:02;;;;;;;3.35;2.47;;;23.20;58.80;;;;;;5028936;28;20119;-73
2021/06/02 10:53:28;;;;;;;5.97;3.72;;;23.60;58.50;;;;;;5047353;28;20063;-71
2021/06/02 10:55:59;;;;;;;6.20;3.47;;;23.90;56.40;;;;;;5047001;28;20146;-71
2021/06/02 10:58:47;;;;;;;9.68;4.88;;;23.90;56.10;;;;;;5049136;28;20484;-71
2021/06/02 11:01:17;;;;;;;7.45;4.35;;;23.90;56.10;;;;;;5048640;28;20553;-71
2021/06/02 11:03:44;;;;;;;3.97;3.13;;;24.00;55.90;;;;;;5048252;28;20488;-72
2021/06/02 11:06:13;;;;;;;6.65;4.40;;;24.10;55.30;;;;;;5048228;28;20073;-73
2021/06/02 11:08:47;;;;;;;10.30;6.57;;;23.90;54.90;;;;;;5043277;28;20439;-72
2021/06/02 11:11:25;;;;;;;8.13;5.35;;;23.90;55.80;;;;;;5047874;28;20032;-72
2021/06/02 11:14:17;;;;;;;8.25;3.28;;;24.00;54.80;;;;;;5047617;28;20048;-71
2021/06/02 11:16:51;;;;;;;4.85;3.28;;;24.20;55.50;;;;;;5046738;28;20028;-71
2021/06/02 11:19:19;;;;;;;11.60;7.45;;;24.50;54.80;;;;;;5046129;28;20029;-71
2021/06/02 11:21:54;;;;;;;9.38;7.75;;;24.80;52.70;;;;;;5047303;28;20100;-71
2021/06/02 11:24:32;;;;;;;12.45;8.85;;;25.00;53.60;;;;;;5046952;28;20029;-71
2021/06/02 11:27:12;;;;;;;7.82;5.32;;;25.30;52.30;;;;;;5043885;28;20106;-71
2021/06/02 11:32:21;;;;;;;4.53;3.40;;;25.20;52.20;;;;;;5049044;28;20048;-72
2021/06/02 11:34:50;;;;;;;5.38;3.20;;;25.40;52.20;;;;;;5045909;28;20099;-70
2021/06/02 11:37:17;;;;;;;17.73;11.45;;;25.40;51.90;;;;;;5048003;28;20067;-70
2021/06/02 11:39:44;;;;;;;4.85;3.88;;;25.50;51.50;;;;;;5046509;28;20033;-69
2021/06/02 11:42:34;;;;;;;8.40;4.35;;;25.70;51.50;;;;;;5049682;28;20021;-70
2021/06/02 11:45:08;;;;;;;4.28;2.80;;;25.70;51.60;;;;;;5045623;28;20094;-70
2021/06/02 11:47:36;;;;;;;7.55;3.50;;;25.80;50.80;;;;;;5045804;28;20383;-69
2021/06/02 11:50:16;;;;;;;4.90;4.00;;;25.90;50.80;;;;;;5047522;28;20036;-69
2021/06/02 11:52:43;;;;;;;6.35;3.92;;;26.20;50.60;;;;;;5044985;28;20078;-72
2021/06/02 11:55:09;;;;;;;5.57;3.78;;;26.10;50.30;;;;;;5047743;28;20021;-71
2021/06/02 11:57:43;;;;;;;9.80;5.30;;;26.20;50.60;;;;;;5046720;28;20028;-71
2021/06/02 12:00:32;;;;;;;6.47;3.97;;;26.30;49.50;;;;;;5047458;28;20504;-71
2021/06/02 12:02:59;;;;;;;9.10;3.92;;;26.20;49.60;;;;;;5046065;28;20487;-72
2021/06/02 12:05:26;;;;;;;7.28;3.90;;;26.20;49.70;;;;;;5046620;28;20067;-73
2021/06/02 12:07:58;;;;;;;8.68;3.90;;;26.20;49.30;;;;;;5045740;28;20032;-73
2021/06/02 12:10:27;;;;;;;7.43;3.60;;;26.20;49.40;;;;;;5047069;28;20035;-73
2021/06/02 12:12:54;;;;;;;8.55;4.15;;;26.20;49.00;;;;;;5046717;28;20423;-73
2021/06/02 12:15:20;;;;;;;5.32;3.65;;;26.20;49.90;;;;;;5048321;28;20029;-73
2021/06/02 12:17:48;;;;;;;6.72;5.65;;;26.10;49.30;;;;;;5045309;28;20028;-74
2021/06/02 12:20:20;;;;;;;10.10;4.35;;;26.10;48.00;;;;;;5044170;28;20132;-73
2021/06/02 12:22:46;;;;;;;3.67;3.35;;;25.90;48.90;;;;;;5046704;28;20036;-71
2021/06/02 12:25:16;;;;;;;6.30;3.60;;;25.90;49.00;;;;;;5047723;28;20116;-72
2021/06/02 12:27:52;;;;;;;9.88;3.22;;;26.00;49.10;;;;;;5047365;28;20154;-74
2021/06/02 12:30:34;;;;;;;5.82;2.88;;;26.00;48.50;;;;;;5063134;28;20029;-74
2021/06/02 12:33:02;;;;;;;9.57;3.55;;;25.90;49.70;;;;;;5046329;28;20447;-72
2021/06/02 12:35:43;;;;;;;8.75;4.93;;;26.20;48.80;;;;;;5045598;28;20025;-73
2021/06/02 12:38:16;;;;;;;4.35;3.63;;;26.10;49.00;;;;;;5043280;28;20393;-72
2021/06/02 12:40:48;;;;;;;5.80;3.78;;;26.10;49.90;;;;;;5047065;28;20052;-71
2021/06/02 12:43:19;;;;;;;4.35;3.33;;;26.10;49.50;;;;;;5047547;28;20029;-73
2021/06/02 12:45:46;;;;;;;3.63;2.88;;;26.20;49.70;;;;;;5047699;28;20037;-74
2021/06/02 12:48:14;;;;;;;10.52;6.53;;;26.40;49.00;;;;;;5046168;28;20033;-71
2021/06/02 12:50:49;;;;;;;4.68;3.05;;;26.40;48.60;;;;;;5047915;28;20100;-71
2021/06/02 12:53:17;;;;;;;8.75;3.22;;;26.50;49.10;;;;;;5044980;28;20504;-73
2021/06/02 12:55:48;;;;;;;8.13;3.83;;;26.80;48.30;;;;;;5045199;28;20057;-72
2021/06/02 12:58:16;;;;;;;5.90;3.72;;;27.10;47.70;;;;;;5045956;28;20205;-75
2021/06/02 13:00:44;;;;;;;8.02;6.05;;;27.10;47.70;;;;;;5046881;28;20018;-73
2021/06/02 13:03:15;;;;;;;4.40;4.00;;;27.20;46.50;;;;;;5045470;28;20035;-73
2021/06/02 13:05:45;;;;;;;4.90;3.10;;;27.00;46.90;;;;;;5047153;28;20083;-73
2021/06/02 13:08:11;;;;;;;5.20;3.30;;;26.90;47.10;;;;;;5045954;28;20060;-73
2021/06/02 13:10:38;;;;;;;4.28;2.92;;;27.00;47.10;;;;;;5044105;28;20060;-73
2021/06/02 13:13:06;;;;;;;4.03;2.72;;;27.10;46.40;;;;;;5047515;28;20266;-72
2021/06/02 13:15:34;;;;;;;4.88;2.53;;;27.00;46.10;;;;;;5047369;28;20104;-73
2021/06/02 13:18:01;;;;;;;5.43;4.10;;;26.90;45.80;;;;;;5041348;28;20384;-72
2021/06/02 13:20:34;;;;;;;5.57;3.65;;;26.90;47.20;;;;;;5047100;28;20369;-73
2021/06/02 13:23:17;;;;;;;6.07;3.13;;;27.00;46.10;;;;;;5046186;28;20032;-73
2021/06/02 13:25:57;;;;;;;4.22;2.92;;;27.10;45.60;;;;;;5048059;28;20431;-72
2021/06/02 13:28:23;;;;;;;5.50;3.00;;;27.20;44.40;;;;;;5044918;28;20028;-72
2021/06/02 13:30:48;;;;;;;4.05;3.03;;;27.10;44.70;;;;;;5045993;28;20033;-73